createdAt,value
2023-11-14T00:02:25.713Z,11.50
2023-11-14T00:05:13.559Z,11.73
2023-11-14T00:08:00.330Z,10.35
2023-11-14T00:10:47.944Z,9.03
2023-11-14T00:13:34.950Z,8.69
2023-11-14T00:16:22.080Z,10.16
2023-11-14T00:19:09.770Z,11.26
2023-11-14T00:21:56.229Z,11.60
2023-11-14T00:24:46.893Z,10.30
2023-11-14T00:27:33.672Z,8.96
2023-11-14T00:30:20.682Z,9.03
2023-11-14T00:33:08.074Z,10.45
2023-11-14T00:35:57.799Z,11.37
2023-11-14T00:38:44.812Z,12.07
2023-11-14T00:41:34.671Z,11.32
2023-11-14T00:44:23.377Z,9.74
2023-11-14T00:47:12.934Z,8.85
2023-11-14T00:49:59.597Z,9.93
2023-11-14T00:52:47.918Z,11.15
2023-11-14T00:55:35.331Z,11.20
2023-11-14T00:58:23.179Z,9.99
2023-11-14T01:01:09.972Z,8.83
2023-11-14T01:03:58.785Z,8.65
2023-11-14T01:06:45.852Z,10.23
2023-11-14T01:09:32.639Z,11.37
2023-11-14T01:12:19.461Z,11.63
2023-11-14T01:15:07.039Z,10.42
2023-11-14T01:17:53.496Z,9.20
2023-11-14T01:20:40.233Z,8.84
2023-11-14T01:23:27.434Z,10.36
2023-11-14T01:26:14.427Z,11.56
2023-11-14T01:29:01.439Z,11.92
2023-11-14T01:31:49.484Z,10.69
2023-11-14T01:34:36.678Z,9.42
2023-11-14T01:37:24.402Z,9.06
2023-11-14T01:40:11.801Z,10.41
2023-11-14T01:43:04.672Z,11.58
2023-11-14T01:45:52.703Z,12.04
2023-11-14T01:48:39.822Z,10.77
2023-11-14T01:51:27.143Z,9.49
2023-11-14T01:54:15.949Z,9.26
2023-11-14T01:57:03.328Z,10.88
2023-11-14T01:59:50.843Z,12.04
2023-11-14T02:02:37.705Z,12.18
2023-11-14T02:05:24.817Z,10.88
2023-11-14T02:08:11.958Z,9.69
2023-11-14T02:10:59.742Z,10.42
2023-11-14T02:13:46.859Z,11.59
2023-11-14T02:16:54.442Z,12.24
2023-11-14T02:19:42.290Z,12.36
2023-11-14T02:22:31.979Z,11.00
2023-11-14T02:25:20.132Z,10.41
2023-11-14T02:28:07.689Z,11.66
2023-11-14T02:30:55.082Z,12.76
2023-11-14T02:33:42.054Z,11.90
2023-11-14T02:36:31.890Z,10.51
2023-11-14T02:39:18.839Z,10.24
2023-11-14T02:42:06.652Z,11.52
2023-11-14T02:44:53.979Z,12.57
2023-11-14T02:47:41.310Z,13.02
2023-11-14T02:50:30.757Z,12.08
2023-11-14T02:53:17.382Z,10.60
2023-11-14T02:56:05.870Z,10.59
2023-11-14T02:58:52.225Z,11.88
2023-11-14T03:01:39.636Z,12.83
2023-11-14T03:04:26.466Z,12.70
2023-11-14T03:07:13.284Z,11.30
2023-11-14T03:10:00.700Z,10.90
2023-11-14T03:12:47.538Z,12.76
2023-11-14T03:15:34.432Z,13.38
2023-11-14T03:18:21.267Z,13.12
2023-11-14T03:21:07.740Z,11.39
2023-11-14T03:23:54.600Z,11.75
2023-11-14T03:26:41.488Z,13.04
2023-11-14T03:29:27.789Z,13.66
2023-11-14T03:32:14.884Z,14.03
2023-11-14T03:35:06.748Z,12.86
2023-11-14T03:37:54.587Z,12.87
2023-11-14T03:40:41.108Z,14.27
2023-11-14T03:43:27.989Z,13.41
2023-11-14T03:46:14.939Z,12.69
2023-11-14T03:49:02.015Z,13.55
2023-11-14T03:51:49.088Z,14.21
2023-11-14T03:54:37.981Z,14.59
2023-11-14T03:57:24.614Z,14.42
2023-11-14T04:00:12.577Z,12.95
2023-11-14T04:03:02.698Z,14.02
2023-11-14T04:05:50.946Z,14.65
2023-11-14T04:08:38.873Z,14.74
2023-11-14T04:11:25.216Z,14.66
2023-11-14T04:14:11.998Z,13.37
2023-11-14T04:16:58.963Z,13.70
2023-11-14T04:19:46.142Z,14.51
2023-11-14T04:22:33.136Z,14.88
2023-11-14T04:25:19.878Z,15.30
2023-11-14T04:28:06.814Z,13.86
2023-11-14T04:30:53.913Z,13.73
2023-11-14T04:33:40.532Z,14.72
2023-11-14T04:36:27.564Z,14.92
2023-11-14T04:39:14.771Z,15.52
2023-11-14T04:42:02.318Z,14.12
2023-11-14T04:44:52.949Z,13.70
2023-11-14T04:47:40.011Z,15.10
2023-11-14T04:50:26.639Z,14.25
2023-11-14T04:53:13.148Z,13.78
2023-11-14T04:55:59.921Z,15.03
2023-11-14T04:58:46.826Z,15.11
2023-11-14T05:01:34.175Z,13.69
2023-11-14T05:04:20.869Z,14.80
2023-11-14T05:07:07.414Z,15.68
2023-11-14T05:09:54.328Z,14.64
2023-11-14T05:12:41.293Z,13.59
2023-11-14T05:15:27.800Z,14.56
2023-11-14T05:18:14.546Z,15.40
2023-11-14T05:21:01.465Z,15.08
2023-11-14T05:23:47.957Z,13.57
2023-11-14T05:26:34.483Z,14.26
2023-11-14T05:29:21.457Z,15.03
2023-11-14T05:32:10.696Z,15.47
2023-11-14T05:34:57.301Z,15.65
2023-11-14T05:37:45.633Z,14.23
2023-11-14T05:40:32.899Z,14.55
2023-11-14T05:43:20.580Z,15.27
2023-11-14T05:46:07.741Z,15.72
2023-11-14T05:48:55.041Z,14.84
2023-11-14T05:51:42.571Z,14.00
2023-11-14T05:54:29.088Z,14.97
2023-11-14T05:57:17.891Z,15.77
2023-11-14T06:00:06.175Z,14.82
2023-11-14T06:02:58.625Z,14.19
2023-11-14T06:05:45.304Z,15.25
2023-11-14T06:08:32.400Z,16.13
2023-11-14T06:11:19.148Z,15.06
2023-11-14T06:14:05.994Z,14.25
2023-11-14T06:16:52.965Z,15.20
2023-11-14T06:19:39.749Z,15.65
2023-11-14T06:22:26.680Z,15.62
2023-11-14T06:25:13.538Z,14.45
2023-11-14T06:28:00.216Z,14.54
2023-11-14T06:30:46.688Z,15.42
2023-11-14T06:33:34.389Z,15.85
2023-11-14T06:36:22.010Z,14.61
2023-11-14T06:39:08.672Z,14.22
2023-11-14T06:41:55.714Z,15.12
2023-11-14T06:44:46.031Z,15.65
2023-11-14T06:47:33.210Z,14.78
2023-11-14T06:50:29.598Z,14.07
2023-11-14T06:53:24.198Z,15.36
2023-11-14T06:56:15.196Z,15.32
2023-11-14T06:59:01.870Z,13.99
2023-11-14T07:01:53.763Z,14.60
2023-11-14T07:04:41.113Z,15.64
2023-11-14T07:07:28.125Z,15.09
2023-11-14T07:10:15.476Z,14.27
2023-11-14T07:13:03.659Z,15.19
2023-11-14T07:15:50.238Z,16.01
2023-11-14T07:18:38.782Z,15.40
2023-11-14T07:21:25.444Z,14.16
2023-11-14T07:24:12.717Z,14.76
2023-11-14T07:26:59.678Z,15.53
2023-11-14T07:29:47.307Z,15.83
2023-11-14T07:32:34.422Z,15.88
2023-11-14T07:35:22.825Z,14.61
2023-11-14T07:38:09.858Z,14.49
2023-11-14T07:40:56.399Z,15.66
2023-11-14T07:43:42.847Z,15.94
2023-11-14T07:46:29.609Z,15.18
2023-11-14T07:49:16.616Z,14.48
2023-11-14T07:52:03.123Z,15.21
2023-11-14T07:54:50.938Z,16.05
2023-11-14T07:57:37.687Z,14.61
2023-11-14T08:00:25.416Z,14.46
2023-11-14T08:03:12.401Z,15.68
2023-11-14T08:05:59.055Z,14.47
2023-11-14T08:08:45.950Z,14.43
2023-11-14T08:11:39.663Z,15.74
2023-11-14T08:14:26.267Z,15.58
2023-11-14T08:17:12.943Z,14.19
2023-11-14T08:20:00.550Z,15.05
2023-11-14T08:22:47.390Z,15.87
2023-11-14T08:25:34.395Z,16.15
2023-11-14T08:28:21.516Z,14.74
2023-11-14T08:31:08.349Z,14.32
2023-11-14T08:33:56.511Z,15.75
2023-11-14T08:36:44.242Z,15.68
2023-11-14T08:39:31.062Z,14.52
2023-11-14T08:42:18.706Z,14.59
2023-11-14T08:45:05.936Z,15.86
2023-11-14T08:47:52.369Z,16.49
2023-11-14T08:50:40.667Z,15.27
2023-11-14T08:53:27.211Z,14.10
2023-11-14T08:56:14.000Z,14.84
2023-11-14T08:59:01.075Z,15.93
2023-11-14T09:01:49.095Z,15.14
2023-11-14T09:04:35.833Z,14.51
2023-11-14T09:07:22.455Z,15.74
2023-11-14T09:10:09.786Z,15.16
2023-11-14T09:12:57.890Z,14.68
2023-11-14T09:15:44.673Z,15.75
2023-11-14T09:18:33.561Z,16.21
2023-11-14T09:21:21.160Z,14.77
2023-11-14T09:24:11.113Z,14.82
2023-11-14T09:26:58.276Z,15.57
2023-11-14T09:29:44.766Z,14.64
2023-11-14T09:32:32.093Z,15.80
2023-11-14T09:35:19.375Z,15.61
2023-11-14T09:38:06.712Z,14.60
2023-11-14T09:40:54.725Z,15.52
2023-11-14T09:43:42.115Z,16.61
2023-11-14T09:46:32.706Z,16.02
2023-11-14T09:49:19.757Z,14.81
2023-11-14T09:52:07.128Z,15.47
2023-11-14T09:54:54.160Z,16.23
2023-11-14T09:57:41.144Z,14.69
2023-11-14T10:00:29.845Z,14.53
2023-11-14T10:03:17.630Z,16.17
2023-11-14T10:06:05.170Z,16.27
2023-11-14T10:08:58.331Z,14.63
2023-11-14T10:12:12.024Z,14.80
2023-11-14T10:14:55.307Z,16.15
2023-11-14T10:17:49.290Z,15.58
2023-11-14T10:23:40.237Z,15.62
2023-11-14T10:26:28.483Z,15.96
2023-11-14T10:29:19.148Z,14.76
2023-11-14T10:32:13.002Z,14.84
2023-11-14T10:35:18.024Z,15.74
2023-11-14T10:38:19.846Z,16.16
2023-11-14T10:41:07.346Z,15.05
2023-11-14T10:43:54.467Z,14.99
2023-11-14T10:46:54.072Z,15.92
2023-11-14T10:49:47.267Z,15.04
2023-11-14T10:52:37.209Z,14.48
2023-11-14T10:55:25.563Z,15.41
2023-11-14T10:58:14.717Z,16.14
2023-11-14T11:01:04.237Z,15.08
2023-11-14T11:03:54.571Z,14.78
2023-11-14T11:06:41.888Z,15.85
2023-11-14T11:09:28.720Z,16.31
2023-11-14T11:12:16.408Z,15.45
2023-11-14T11:15:04.078Z,15.06
2023-11-14T11:17:59.643Z,15.93
2023-11-14T11:20:46.248Z,16.77
2023-11-14T11:24:30.107Z,15.70
2023-11-14T11:27:26.483Z,15.11
2023-11-14T11:30:14.661Z,16.25
2023-11-14T11:33:34.398Z,15.67
2023-11-14T11:36:24.937Z,15.20
2023-11-14T11:39:12.020Z,16.21
2023-11-14T11:42:00.543Z,16.92
2023-11-14T11:44:47.134Z,15.34
2023-11-14T11:47:38.374Z,15.17
2023-11-14T11:50:34.316Z,15.67
2023-11-14T11:53:41.677Z,14.70
2023-11-14T11:56:37.437Z,15.46
2023-11-14T11:59:25.656Z,16.27
2023-11-14T12:02:14.666Z,15.11
2023-11-14T12:05:03.401Z,15.05
2023-11-14T12:07:50.667Z,16.29
2023-11-14T12:10:37.701Z,15.95
2023-11-14T12:13:28.519Z,14.87
2023-11-14T12:16:15.585Z,15.55
2023-11-14T12:19:03.185Z,16.97
2023-11-14T12:21:50.765Z,15.80
2023-11-14T12:24:37.796Z,14.75
2023-11-14T12:27:24.438Z,15.85
2023-11-14T12:30:14.287Z,16.56
2023-11-14T12:33:08.540Z,15.71
2023-11-14T12:35:58.946Z,15.36
2023-11-14T12:38:45.832Z,16.51
2023-11-14T12:41:33.525Z,16.16
2023-11-14T12:44:20.590Z,15.15
2023-11-14T12:47:12.066Z,16.30
2023-11-14T12:49:58.681Z,16.44
2023-11-14T12:52:45.354Z,16.89
2023-11-14T12:55:31.871Z,15.58
2023-11-14T12:58:18.541Z,14.80
2023-11-14T13:01:04.866Z,15.76
2023-11-14T13:03:51.658Z,16.57
2023-11-14T13:06:39.700Z,16.71
2023-11-14T13:09:27.828Z,16.93
2023-11-14T13:12:14.893Z,16.33
2023-11-14T13:15:01.602Z,15.31
2023-11-14T13:17:48.933Z,15.89
2023-11-14T13:20:35.617Z,16.50
2023-11-14T13:23:23.114Z,16.48
2023-11-14T13:26:11.200Z,16.68
2023-11-14T13:28:58.032Z,15.53
2023-11-14T13:31:44.873Z,15.26
2023-11-14T13:34:36.311Z,15.80
2023-11-14T13:37:23.663Z,16.18
2023-11-14T13:40:12.558Z,16.61
2023-11-14T13:42:59.221Z,16.36
2023-11-14T13:45:46.580Z,15.11
2023-11-14T13:48:34.731Z,16.03
2023-11-14T13:51:21.577Z,16.36
2023-11-14T13:54:11.006Z,16.62
2023-11-14T13:56:58.834Z,16.40
2023-11-14T13:59:46.822Z,15.08
2023-11-14T14:02:36.129Z,15.69
2023-11-14T14:05:22.795Z,15.88
2023-11-14T14:08:10.845Z,15.99
2023-11-14T14:10:57.896Z,15.80
2023-11-14T14:13:44.466Z,15.99
2023-11-14T14:16:30.877Z,16.05
2023-11-14T14:19:18.646Z,16.03
2023-11-14T14:22:06.262Z,16.25
2023-11-14T14:24:52.753Z,16.26
2023-11-14T14:27:39.214Z,16.39
2023-11-14T14:30:26.380Z,16.51
2023-11-14T14:33:13.105Z,16.53
2023-11-14T14:35:59.788Z,16.45
2023-11-14T14:38:47.886Z,16.59
2023-11-14T14:41:37.963Z,16.90
2023-11-14T14:44:27.464Z,16.05
2023-11-14T14:47:15.159Z,15.18
2023-11-14T14:50:06.209Z,16.05
2023-11-14T14:52:54.906Z,16.02
2023-11-14T14:55:41.460Z,16.63
2023-11-14T14:58:27.848Z,16.51
2023-11-14T15:01:15.358Z,16.24
2023-11-14T15:04:02.363Z,16.95
2023-11-14T15:06:49.113Z,16.24
2023-11-14T15:09:35.951Z,15.33
2023-11-14T15:12:23.427Z,15.89
2023-11-14T15:15:12.057Z,15.98
2023-11-14T15:17:59.962Z,16.10
2023-11-14T15:20:47.872Z,15.89
2023-11-14T15:23:34.592Z,16.45
2023-11-14T15:26:23.556Z,16.19
2023-11-14T15:29:10.894Z,16.29
2023-11-14T15:31:58.125Z,16.77
2023-11-14T15:34:44.677Z,15.23
2023-11-14T15:37:30.965Z,15.51
2023-11-14T15:40:19.337Z,16.34
2023-11-14T15:43:06.448Z,16.31
2023-11-14T15:45:53.268Z,16.32
2023-11-14T15:48:39.910Z,16.79
2023-11-14T15:51:26.895Z,16.43
2023-11-14T15:54:13.662Z,16.39
2023-11-14T15:57:00.488Z,16.50
2023-11-14T15:59:48.249Z,16.35
2023-11-14T16:02:34.835Z,16.54
2023-11-14T16:05:21.572Z,16.78
2023-11-14T16:08:08.884Z,15.67
2023-11-14T16:10:58.619Z,15.53
2023-11-14T16:13:45.383Z,15.99
2023-11-14T16:16:32.532Z,16.13
2023-11-14T16:19:22.751Z,16.20
2023-11-14T16:22:09.666Z,16.52
2023-11-14T16:24:56.628Z,16.36
2023-11-14T16:27:43.647Z,16.41
2023-11-14T16:30:30.842Z,16.75
2023-11-14T16:33:17.470Z,15.37
2023-11-14T16:36:05.392Z,15.67
2023-11-14T16:38:52.176Z,16.28
2023-11-14T16:41:39.038Z,16.35
2023-11-14T16:44:26.505Z,15.06
2023-11-14T16:47:13.713Z,15.71
2023-11-14T16:50:00.622Z,16.18
2023-11-14T16:52:48.059Z,16.45
2023-11-14T16:55:38.528Z,16.77
2023-11-14T16:58:25.319Z,15.38
2023-11-14T17:01:13.303Z,15.40
2023-11-14T17:04:01.825Z,16.15
2023-11-14T17:06:49.663Z,16.79
2023-11-14T17:09:36.155Z,16.79
2023-11-14T17:12:22.875Z,15.20
2023-11-14T17:15:10.334Z,15.31
2023-11-14T17:17:57.051Z,15.51
2023-11-14T17:20:43.701Z,15.74
2023-11-14T17:23:30.625Z,15.91
2023-11-14T17:26:21.308Z,16.01
2023-11-14T17:29:09.872Z,16.44
2023-11-14T17:32:00.648Z,16.88
2023-11-14T17:34:48.437Z,16.64
2023-11-14T17:37:37.246Z,16.64
2023-11-14T17:40:23.569Z,16.94
2023-11-14T17:43:10.362Z,16.98
2023-11-14T17:45:57.009Z,15.95
2023-11-14T17:48:44.578Z,14.84
2023-11-14T17:51:38.430Z,15.52
2023-11-14T17:54:26.569Z,16.60
2023-11-14T17:57:14.445Z,16.68
2023-11-14T18:00:01.310Z,17.05
2023-11-14T18:02:48.618Z,16.29
2023-11-14T18:05:35.664Z,15.56
2023-11-14T18:08:22.794Z,16.26
2023-11-14T18:11:09.685Z,16.51
2023-11-14T18:13:56.509Z,15.32
2023-11-14T18:16:44.076Z,15.63
2023-11-14T18:19:31.009Z,16.24
2023-11-14T18:22:17.846Z,16.32
2023-11-14T18:25:05.574Z,16.63
2023-11-14T18:27:52.023Z,15.37
2023-11-14T18:30:38.891Z,16.38
2023-11-14T18:33:25.506Z,16.72
2023-11-14T18:36:12.587Z,15.36
2023-11-14T18:38:59.425Z,15.25
2023-11-14T18:41:46.450Z,15.52
2023-11-14T18:44:34.368Z,16.15
2023-11-14T18:47:22.289Z,16.17
2023-11-14T18:50:10.439Z,16.57
2023-11-14T18:52:57.221Z,15.19
2023-11-14T18:55:45.711Z,15.19
2023-11-14T18:58:32.217Z,16.28
2023-11-14T19:01:23.068Z,16.67
2023-11-14T19:04:10.072Z,15.24
2023-11-14T19:06:56.942Z,15.67
2023-11-14T19:09:45.018Z,16.22
2023-11-14T19:12:31.503Z,15.76
2023-11-14T19:15:18.659Z,15.10
2023-11-14T19:18:05.549Z,15.81
2023-11-14T19:21:21.435Z,16.16
2023-11-14T19:24:00.048Z,16.85
2023-11-14T19:26:47.888Z,15.69
2023-11-14T19:29:34.483Z,14.97
2023-11-14T19:32:21.055Z,15.35
2023-11-14T19:35:08.165Z,16.24
2023-11-14T19:37:55.142Z,16.66
2023-11-14T19:40:41.712Z,16.56
2023-11-14T19:43:30.000Z,15.11
2023-11-14T19:46:16.615Z,15.40
2023-11-14T19:49:03.489Z,16.26
2023-11-14T19:51:54.734Z,16.64
2023-11-14T19:54:45.477Z,16.45
2023-11-14T19:57:33.032Z,16.64
2023-11-14T20:00:22.762Z,16.82
2023-11-14T20:03:09.546Z,15.01
2023-11-14T20:05:56.478Z,15.09
2023-11-14T20:08:43.436Z,15.88
2023-11-14T20:11:30.760Z,16.22
2023-11-14T20:14:19.026Z,16.64
2023-11-14T20:17:07.392Z,16.26
2023-11-14T20:19:57.098Z,15.26
2023-11-14T20:22:44.191Z,15.74
2023-11-14T20:25:31.206Z,16.27
2023-11-14T20:28:18.581Z,16.84
2023-11-14T20:31:05.698Z,16.89
2023-11-14T20:33:52.492Z,15.44
2023-11-14T20:36:39.101Z,15.19
2023-11-14T20:39:25.971Z,16.12
2023-11-14T20:42:12.568Z,16.58
2023-11-14T20:44:59.204Z,15.92
2023-11-14T20:47:46.297Z,15.39
2023-11-14T20:50:33.290Z,16.55
2023-11-14T20:53:19.793Z,16.55
2023-11-14T20:56:07.298Z,16.64
2023-11-14T20:58:54.802Z,16.73
2023-11-14T21:01:41.333Z,17.02
2023-11-14T21:04:29.012Z,15.96
2023-11-14T21:07:18.106Z,14.91
2023-11-14T21:10:05.391Z,16.11
2023-11-14T21:12:52.028Z,16.28
2023-11-14T21:15:39.077Z,16.54
2023-11-14T21:18:25.839Z,16.87
2023-11-14T21:21:12.763Z,15.82
2023-11-14T21:24:00.089Z,15.18
2023-11-14T21:26:46.758Z,15.86
2023-11-14T21:29:33.758Z,16.45
2023-11-14T21:32:20.991Z,16.00
2023-11-14T21:35:09.332Z,15.00
2023-11-14T21:37:55.829Z,15.45
2023-11-14T21:40:42.995Z,15.96
2023-11-14T21:43:30.641Z,16.44
2023-11-14T21:46:17.294Z,14.81
2023-11-14T21:49:06.267Z,15.21
2023-11-14T21:51:53.457Z,15.61
2023-11-14T21:54:40.197Z,16.59
2023-11-14T21:57:26.760Z,15.40
2023-11-14T22:00:14.974Z,15.11
2023-11-14T22:03:01.571Z,16.34
2023-11-14T22:05:50.752Z,15.28
2023-11-14T22:08:37.678Z,15.24
2023-11-14T22:11:24.450Z,15.97
2023-11-14T22:14:12.069Z,16.13
2023-11-14T22:16:58.868Z,16.28
2023-11-14T22:19:46.627Z,16.16
2023-11-14T22:22:33.268Z,14.84
2023-11-14T22:25:19.995Z,15.14
2023-11-14T22:28:06.461Z,15.71
2023-11-14T22:30:53.398Z,16.61
2023-11-14T22:33:39.873Z,16.32
2023-11-14T22:36:26.864Z,14.89
2023-11-14T22:39:16.263Z,15.08
2023-11-14T22:42:05.326Z,15.80
2023-11-14T22:44:52.056Z,16.12
2023-11-14T22:47:39.305Z,16.04
2023-11-14T22:50:26.018Z,16.05
2023-11-14T22:53:13.366Z,16.47
2023-11-14T22:56:00.255Z,15.47
2023-11-14T22:58:47.752Z,15.13
2023-11-14T23:01:38.318Z,15.92
2023-11-14T23:04:26.633Z,16.64
2023-11-14T23:07:13.597Z,15.14
2023-11-14T23:10:00.578Z,14.22
2023-11-14T23:12:47.517Z,15.09
2023-11-14T23:15:34.069Z,16.10
2023-11-14T23:18:21.386Z,16.38
2023-11-14T23:21:08.444Z,14.85
2023-11-14T23:23:55.183Z,15.09
2023-11-14T23:26:42.900Z,16.12
2023-11-14T23:29:29.616Z,15.55
2023-11-14T23:32:16.436Z,14.55
2023-11-14T23:35:03.722Z,15.47
2023-11-14T23:37:50.232Z,15.88
2023-11-14T23:40:37.468Z,14.33
2023-11-14T23:43:24.255Z,14.46
2023-11-14T23:46:11.629Z,15.45
2023-11-14T23:48:58.406Z,16.32
2023-11-14T23:51:45.085Z,14.76
2023-11-14T23:54:32.614Z,14.77
2023-11-14T23:57:19.613Z,15.80
